createdAt,value
2019-05-12T00:01:29.782Z,3.53
2019-05-12T00:03:58.028Z,3.80
2019-05-12T00:06:28.197Z,4.23
2019-05-12T00:08:54.683Z,3.97
2019-05-12T00:11:21.758Z,3.70
2019-05-12T00:13:48.912Z,3.63
2019-05-12T00:16:17.711Z,4.10
2019-05-12T00:18:45.045Z,3.90
2019-05-12T00:21:12.089Z,4.13
2019-05-12T00:23:58.205Z,4.53
2019-05-12T00:26:25.459Z,4.00
2019-05-12T00:28:52.516Z,4.30
2019-05-12T00:31:19.584Z,4.80
2019-05-12T00:33:48.047Z,4.40
2019-05-12T00:36:18.456Z,4.43
2019-05-12T00:38:45.411Z,4.37
2019-05-12T00:41:12.479Z,4.40
2019-05-12T00:43:39.575Z,4.53
2019-05-12T00:46:07.965Z,4.87
2019-05-12T00:48:37.461Z,4.40
2019-05-12T00:51:04.371Z,4.50
2019-05-12T00:53:39.920Z,4.83
2019-05-12T00:56:00.503Z,5.10
2019-05-12T00:58:27.887Z,4.67
2019-05-12T01:00:55.163Z,4.60
2019-05-12T01:03:22.232Z,4.63
2019-05-12T01:05:49.277Z,4.53
2019-05-12T01:08:18.535Z,4.83
2019-05-12T01:10:47.783Z,4.97
2019-05-12T01:13:14.376Z,4.90
2019-05-12T01:15:41.439Z,5.10
2019-05-12T01:18:09.857Z,4.80
2019-05-12T01:20:38.991Z,4.97
2019-05-12T01:23:08.328Z,5.10
2019-05-12T01:25:35.285Z,5.30
2019-05-12T01:28:02.368Z,5.40
2019-05-12T01:30:29.448Z,5.53
2019-05-12T01:32:58.101Z,5.73
2019-05-12T01:35:27.765Z,5.65
2019-05-12T01:37:54.548Z,5.90
2019-05-12T01:40:21.601Z,5.50
2019-05-12T01:42:48.668Z,5.60
2019-05-12T01:45:18.055Z,5.77
2019-05-12T01:47:44.910Z,5.60
2019-05-12T01:50:12.175Z,5.50
2019-05-12T01:52:39.240Z,5.50
2019-05-12T01:55:08.185Z,6.50
2019-05-12T01:57:38.260Z,7.27
2019-05-12T02:00:08.054Z,6.30
2019-05-12T02:02:35.188Z,6.13
2019-05-12T02:05:08.186Z,6.07
2019-05-12T02:07:47.995Z,6.43
2019-05-12T02:10:18.001Z,6.30
2019-05-12T02:12:45.620Z,6.47
2019-05-12T02:15:13.563Z,5.47
2019-05-12T02:17:40.736Z,5.87
2019-05-12T02:20:09.701Z,6.70
2019-05-12T02:22:38.796Z,5.80
2019-05-12T02:25:08.072Z,6.80
2019-05-12T02:27:35.515Z,6.27
2019-05-12T02:30:03.717Z,7.47
2019-05-12T02:32:43.349Z,6.90
2019-05-12T02:35:00.741Z,6.60
2019-05-12T02:37:27.905Z,7.50
2019-05-12T02:39:55.777Z,7.07
2019-05-12T02:42:24.413Z,7.47
2019-05-12T02:44:54.980Z,6.50
2019-05-12T02:47:23.829Z,7.47
2019-05-12T02:49:49.892Z,6.77
2019-05-12T02:52:17.982Z,6.20
2019-05-12T02:54:55.232Z,6.33
2019-05-12T02:57:16.337Z,6.83
2019-05-12T02:59:46.178Z,5.93
2019-05-12T03:02:14.361Z,6.63
2019-05-12T03:04:44.222Z,6.97
2019-05-12T03:07:14.975Z,6.60
2019-05-12T03:09:40.913Z,7.30
2019-05-12T03:12:08.180Z,6.73
2019-05-12T03:14:40.296Z,7.70
2019-05-12T03:17:04.795Z,7.80
2019-05-12T03:19:34.585Z,7.30
2019-05-12T03:22:01.113Z,6.93
2019-05-12T03:24:28.185Z,7.20
2019-05-12T03:26:55.462Z,6.87
2019-05-12T03:29:25.122Z,7.30
2019-05-12T03:31:56.660Z,7.47
2019-05-12T03:34:21.152Z,7.80
2019-05-12T03:36:51.363Z,6.90
2019-05-12T03:39:17.555Z,7.67
2019-05-12T03:41:44.896Z,7.23
2019-05-12T03:44:15.085Z,7.97
2019-05-12T03:46:41.075Z,7.10
2019-05-12T03:49:08.136Z,6.67
2019-05-12T03:51:35.382Z,8.10
2019-05-12T03:54:04.829Z,8.00
2019-05-12T03:56:34.523Z,7.67
2019-05-12T03:59:00.925Z,7.43
2019-05-12T04:01:27.992Z,8.03
2019-05-12T04:03:55.068Z,7.67
2019-05-12T04:06:24.467Z,7.60
2019-05-12T04:08:54.461Z,8.37
2019-05-12T04:11:20.342Z,8.20
2019-05-12T04:13:48.411Z,7.27
2019-05-12T04:16:16.518Z,8.27
2019-05-12T04:18:45.017Z,8.67
2019-05-12T04:21:15.246Z,7.77
2019-05-12T04:23:44.351Z,7.97
2019-05-12T04:26:13.349Z,7.90
2019-05-12T04:28:39.415Z,8.43
2019-05-12T04:31:06.494Z,8.03
2019-05-12T04:33:34.657Z,8.37
2019-05-12T04:36:05.285Z,7.87
2019-05-12T04:38:31.309Z,7.10
2019-05-12T04:40:58.477Z,7.73
2019-05-12T04:43:25.723Z,8.57
2019-05-12T04:45:54.893Z,7.80
2019-05-12T04:48:25.421Z,8.30
2019-05-12T04:50:50.875Z,6.93
2019-05-12T04:53:18.036Z,7.53
2019-05-12T04:55:45.104Z,8.47
2019-05-12T04:58:15.200Z,7.53
2019-05-12T05:00:41.139Z,7.83
2019-05-12T05:03:08.205Z,7.40
2019-05-12T05:05:36.092Z,8.27
2019-05-12T05:08:04.570Z,7.77
2019-05-12T05:10:34.089Z,8.47
2019-05-12T05:13:00.788Z,8.40
2019-05-12T05:15:27.853Z,7.83
2019-05-12T05:17:54.920Z,8.47
2019-05-12T05:20:23.987Z,8.03
2019-05-12T05:22:50.947Z,8.73
2019-05-12T05:25:18.111Z,9.03
2019-05-12T05:27:45.581Z,8.13
2019-05-12T05:30:14.208Z,8.57
2019-05-12T05:32:41.383Z,8.13
2019-05-12T05:35:09.169Z,8.77
2019-05-12T05:37:41.308Z,8.73
2019-05-12T05:40:05.816Z,9.03
2019-05-12T05:42:35.557Z,8.90
2019-05-12T05:45:04.677Z,9.03
2019-05-12T05:47:33.459Z,9.27
2019-05-12T05:50:00.859Z,9.10
2019-05-12T05:52:33.165Z,9.10
2019-05-12T05:54:58.816Z,8.87
2019-05-12T05:57:29.771Z,9.40
2019-05-12T05:59:55.287Z,9.47
2019-05-12T06:02:31.015Z,9.03
2019-05-12T06:04:54.067Z,9.47
2019-05-12T06:07:23.871Z,9.70
2019-05-12T06:09:49.233Z,8.80
2019-05-12T06:12:16.309Z,8.77
2019-05-12T06:14:46.732Z,8.47
2019-05-12T06:17:14.602Z,7.87
2019-05-12T06:19:43.807Z,8.20
2019-05-12T06:22:15.272Z,8.13
2019-05-12T06:24:39.921Z,7.83
2019-05-12T06:27:15.133Z,7.63
2019-05-12T06:29:35.956Z,7.43
2019-05-12T06:32:06.413Z,7.17
2019-05-12T06:34:34.179Z,6.80
2019-05-12T06:37:03.106Z,6.10
2019-05-12T06:39:30.018Z,5.97
2019-05-12T06:42:02.230Z,6.13
2019-05-12T06:44:26.288Z,5.90
2019-05-12T06:47:02.414Z,5.80
2019-05-12T06:49:24.668Z,6.00
2019-05-12T06:51:53.636Z,5.80
2019-05-12T06:54:20.972Z,5.37
2019-05-12T06:56:49.982Z,4.77
2019-05-12T06:59:16.999Z,5.33
2019-05-12T07:01:45.028Z,5.43
2019-05-12T07:04:14.138Z,4.20
2019-05-12T07:06:41.327Z,4.60
2019-05-12T07:09:09.774Z,4.00
2019-05-12T07:11:45.103Z,4.10
2019-05-12T07:14:13.189Z,3.63
2019-05-12T07:16:35.222Z,3.50
2019-05-12T07:19:07.613Z,3.43
2019-05-12T07:21:33.520Z,3.30
2019-05-12T07:24:05.814Z,3.50
2019-05-12T07:26:29.428Z,3.30
2019-05-12T07:28:56.504Z,3.63
2019-05-12T07:31:23.910Z,3.37
2019-05-12T07:33:54.011Z,3.17
2019-05-12T07:36:20.557Z,3.30
2019-05-12T07:38:48.016Z,3.00
2019-05-12T07:41:16.999Z,3.03
2019-05-12T07:43:50.380Z,2.80
2019-05-12T07:46:16.736Z,2.60
2019-05-12T07:48:49.004Z,2.60
2019-05-12T07:51:13.794Z,2.70
2019-05-12T07:53:46.779Z,2.60
2019-05-12T07:56:11.111Z,2.87
2019-05-12T07:58:40.868Z,2.87
2019-05-12T08:01:08.070Z,3.00
2019-05-12T08:03:35.576Z,2.50
2019-05-12T08:06:04.557Z,2.53
2019-05-12T08:08:33.847Z,2.97
2019-05-12T08:11:00.847Z,2.60
2019-05-12T08:13:31.278Z,2.43
2019-05-12T08:15:56.889Z,2.43
2019-05-12T08:18:24.604Z,2.57
2019-05-12T08:20:53.904Z,2.60
2019-05-12T08:23:23.258Z,2.10
2019-05-12T08:25:50.064Z,2.60
2019-05-12T08:28:19.340Z,2.50
2019-05-12T08:30:51.801Z,1.87
2019-05-12T08:33:15.180Z,2.10
2019-05-12T08:35:43.854Z,2.23
2019-05-12T08:38:11.324Z,2.13
2019-05-12T08:40:48.830Z,2.23
2019-05-12T08:43:10.306Z,1.90
2019-05-12T08:45:37.715Z,2.23
2019-05-12T08:48:10.064Z,1.90
2019-05-12T08:50:36.132Z,1.80
2019-05-12T08:55:33.351Z,2.50
2019-05-12T08:58:03.596Z,1.60
2019-05-12T09:00:34.141Z,1.80
2019-05-12T09:03:03.444Z,2.17
2019-05-12T09:05:36.748Z,2.00
2019-05-12T09:07:59.940Z,2.00
2019-05-12T09:10:27.024Z,2.00
2019-05-12T09:12:54.221Z,1.90
2019-05-12T09:15:21.283Z,2.00
2019-05-12T09:17:54.626Z,1.70
2019-05-12T09:20:18.692Z,2.40
2019-05-12T09:22:45.761Z,2.23
2019-05-12T09:25:14.302Z,1.90
2019-05-12T09:27:47.625Z,2.10
2019-05-12T09:30:21.361Z,1.70
2019-05-12T09:32:50.341Z,1.70
2019-05-12T09:35:17.892Z,1.80
2019-05-12T09:37:44.951Z,1.80
2019-05-12T09:40:14.705Z,1.80
2019-05-12T09:42:41.459Z,2.07
2019-05-12T09:45:10.553Z,2.00
2019-05-12T09:47:37.669Z,1.90
2019-05-12T09:50:09.615Z,1.70
2019-05-12T09:52:34.164Z,2.00
2019-05-12T09:55:01.345Z,1.73
2019-05-12T09:57:32.397Z,1.90
2019-05-12T09:59:59.483Z,1.77
2019-05-12T10:02:26.356Z,1.97
2019-05-12T10:04:56.359Z,2.00
2019-05-12T10:07:22.928Z,2.20
2019-05-12T10:09:55.015Z,2.00
2019-05-12T10:12:19.021Z,2.37
2019-05-12T10:14:47.229Z,2.27
2019-05-12T10:17:14.581Z,1.87
2019-05-12T10:19:43.392Z,1.90
2019-05-12T10:22:10.703Z,2.00
2019-05-12T10:24:41.388Z,1.63
2019-05-12T10:27:06.781Z,1.70
2019-05-12T10:29:34.125Z,1.70
2019-05-12T10:32:01.221Z,2.00
2019-05-12T10:34:29.291Z,1.60
2019-05-12T10:36:57.333Z,1.67
2019-05-12T10:39:24.761Z,1.63
2019-05-12T10:41:53.956Z,1.60
2019-05-12T10:44:21.167Z,1.70
2019-05-12T10:46:53.812Z,1.43
2019-05-12T10:49:23.319Z,1.70
2019-05-12T10:51:50.452Z,1.60
2019-05-12T10:54:17.528Z,1.30
2019-05-12T10:56:44.692Z,2.00
2019-05-12T10:59:13.350Z,2.00
2019-05-12T11:01:47.120Z,1.70
2019-05-12T11:04:09.689Z,1.70
2019-05-12T11:06:39.798Z,2.07
2019-05-12T11:09:07.673Z,1.90
2019-05-12T11:11:42.633Z,1.83
2019-05-12T11:14:05.060Z,1.40
2019-05-12T11:16:44.524Z,1.68
2019-05-12T11:19:13.585Z,1.30
2019-05-12T11:21:40.681Z,1.63
2019-05-12T11:24:07.753Z,1.30
2019-05-12T11:26:34.809Z,1.33
2019-05-12T11:29:03.766Z,1.40
2019-05-12T11:31:30.913Z,1.50
2019-05-12T11:34:17.852Z,1.30
2019-05-12T11:36:44.943Z,1.30
2019-05-12T11:39:14.108Z,1.37
2019-05-12T11:41:41.215Z,1.60
2019-05-12T11:44:08.300Z,1.37
2019-05-12T11:46:36.433Z,1.50
2019-05-12T11:49:04.373Z,1.60
2019-05-12T11:51:33.938Z,1.50
2019-05-12T11:54:03.507Z,1.50
2019-05-12T11:56:30.288Z,1.40
2019-05-12T11:58:57.397Z,1.50
2019-05-12T12:01:26.660Z,1.50
2019-05-12T12:03:54.672Z,1.80
2019-05-12T12:06:23.919Z,1.70
2019-05-12T12:08:53.526Z,1.60
2019-05-12T12:11:24.755Z,1.67
2019-05-12T12:13:50.632Z,1.60
2019-05-12T12:16:17.868Z,1.70
2019-05-12T12:18:49.237Z,1.60
2019-05-12T12:21:14.432Z,1.80
2019-05-12T12:23:47.269Z,1.60
2019-05-12T12:26:28.248Z,1.70
2019-05-12T12:28:53.731Z,1.70
2019-05-12T12:31:20.976Z,1.70
2019-05-12T12:33:48.101Z,1.83
2019-05-12T12:36:16.400Z,1.60
2019-05-12T12:38:44.042Z,1.53
2019-05-12T12:41:13.209Z,1.90
2019-05-12T12:43:40.522Z,1.90
2019-05-12T12:46:17.860Z,2.07
2019-05-12T12:48:43.948Z,1.90
2019-05-12T12:51:11.332Z,1.70
2019-05-12T12:53:38.481Z,2.00
2019-05-12T12:56:05.594Z,1.70
2019-05-12T12:58:34.573Z,1.73
2019-05-12T13:01:03.678Z,2.13
2019-05-12T13:03:31.178Z,2.10
2019-05-12T13:05:58.288Z,1.77
2019-05-12T13:08:25.484Z,2.10
2019-05-12T13:10:54.291Z,1.70
2019-05-12T13:13:24.071Z,1.80
2019-05-12T13:15:50.805Z,2.10
2019-05-12T13:18:24.703Z,2.00
2019-05-12T13:20:47.007Z,2.00
2019-05-12T13:23:15.026Z,2.10
2019-05-12T13:25:50.040Z,1.80
2019-05-12T13:28:18.171Z,1.73
2019-05-12T13:30:46.069Z,1.87
2019-05-12T13:33:15.067Z,2.00
2019-05-12T13:35:38.933Z,1.93
2019-05-12T13:38:06.109Z,2.00
2019-05-12T13:40:36.078Z,1.77
2019-05-12T13:43:03.872Z,1.80
2019-05-12T13:45:33.612Z,1.60
2019-05-12T13:48:01.120Z,1.90
2019-05-12T13:50:28.860Z,1.80
2019-05-12T13:53:01.233Z,1.60
2019-05-12T13:55:25.589Z,1.90
2019-05-12T13:57:57.739Z,1.73
2019-05-12T14:00:21.793Z,1.70
2019-05-12T14:02:49.110Z,1.60
2019-05-12T14:05:16.661Z,1.80
2019-05-12T14:07:44.217Z,1.80
2019-05-12T14:10:13.981Z,1.77
2019-05-12T14:12:40.980Z,1.70
2019-05-12T14:15:08.837Z,1.70
2019-05-12T14:17:40.344Z,1.57
2019-05-12T14:20:09.477Z,1.53
2019-05-12T14:22:36.353Z,1.80
2019-05-12T14:25:05.585Z,1.83
2019-05-12T14:27:33.854Z,1.60
2019-05-12T14:30:09.426Z,1.27
2019-05-12T14:32:33.509Z,1.67
2019-05-12T14:35:00.855Z,1.50
2019-05-12T14:37:28.472Z,1.77
2019-05-12T14:39:55.704Z,1.50
2019-05-12T14:42:26.058Z,1.50
2019-05-12T14:44:53.728Z,1.70
2019-05-12T14:47:25.752Z,1.50
2019-05-12T14:49:50.384Z,1.60
2019-05-12T14:52:17.532Z,1.40
2019-05-12T14:54:44.874Z,1.50
2019-05-12T14:57:13.860Z,1.55
2019-05-12T14:59:41.891Z,1.50
2019-05-12T15:02:09.336Z,1.50
2019-05-12T15:04:36.549Z,1.50
2019-05-12T15:07:09.663Z,1.93
2019-05-12T15:09:35.168Z,1.67
2019-05-12T15:12:03.570Z,1.60
2019-05-12T15:14:37.994Z,1.57
2019-05-12T15:17:03.730Z,1.60
2019-05-12T15:19:33.488Z,1.70
2019-05-12T15:22:07.700Z,1.70
2019-05-12T15:24:33.664Z,1.53
2019-05-12T15:27:01.295Z,1.70
2019-05-12T15:29:30.289Z,2.10
2019-05-12T15:31:58.596Z,1.80
2019-05-12T15:34:25.899Z,1.70
2019-05-12T15:36:56.155Z,2.00
2019-05-12T15:39:22.591Z,1.53
2019-05-12T15:41:50.986Z,1.67
2019-05-12T15:44:23.134Z,1.50
2019-05-12T15:46:50.276Z,1.67
2019-05-12T15:49:18.113Z,1.60
2019-05-12T15:51:54.017Z,1.60
2019-05-12T15:54:15.203Z,1.53
2019-05-12T15:56:42.463Z,1.70
2019-05-12T15:59:09.863Z,1.80
2019-05-12T16:01:39.336Z,1.70
2019-05-12T16:04:06.836Z,1.70
2019-05-12T16:06:34.808Z,1.60
2019-05-12T16:09:03.992Z,1.60
2019-05-12T16:11:33.412Z,1.50
2019-05-12T16:14:00.848Z,1.67
2019-05-12T16:16:28.321Z,1.67
2019-05-12T16:18:56.142Z,1.60
2019-05-12T16:21:24.742Z,1.37
2019-05-12T16:23:53.561Z,1.43
2019-05-12T16:26:24.124Z,1.30
2019-05-12T16:29:02.551Z,1.50
2019-05-12T16:31:25.015Z,1.30
2019-05-12T16:34:00.860Z,1.60
2019-05-12T16:36:22.243Z,1.63
2019-05-12T16:38:50.170Z,1.40
2019-05-12T16:41:19.799Z,1.50
2019-05-12T16:43:47.576Z,1.60
2019-05-12T16:48:48.193Z,1.50
2019-05-12T16:51:13.707Z,1.53
2019-05-12T16:53:40.512Z,1.40
2019-05-12T16:56:07.990Z,1.20
2019-05-12T16:58:35.562Z,1.60
2019-05-12T17:01:03.887Z,2.07
2019-05-12T17:03:34.175Z,1.30
2019-05-12T17:06:04.417Z,1.43
2019-05-12T17:08:34.259Z,1.30
2019-05-12T17:11:21.647Z,1.30
2019-05-12T17:13:31.132Z,1.10
2019-05-12T17:16:00.199Z,1.30
2019-05-12T17:18:30.006Z,1.30
2019-05-12T17:20:57.496Z,1.30
2019-05-12T17:23:24.843Z,1.17
2019-05-12T17:25:52.317Z,1.40
2019-05-12T17:28:20.582Z,1.50
2019-05-12T17:30:48.141Z,1.47
2019-05-12T17:33:22.826Z,1.27
2019-05-12T17:35:47.042Z,1.37
2019-05-12T17:38:20.030Z,1.43
2019-05-12T17:40:44.165Z,1.20
2019-05-12T17:43:12.129Z,1.50
2019-05-12T17:45:40.508Z,1.30
2019-05-12T17:48:08.014Z,1.23
2019-05-12T17:50:40.291Z,1.20
2019-05-12T17:53:07.225Z,1.10
2019-05-12T17:55:34.439Z,1.20
2019-05-12T17:58:03.668Z,1.10
2019-05-12T18:00:30.908Z,1.30
2019-05-12T18:06:20.552Z,1.30
2019-05-12T18:17:08.674Z,1.20
2019-05-12T18:32:54.940Z,1.67
2019-05-12T18:40:54.057Z,1.70
2019-05-12T18:43:21.284Z,1.60
2019-05-12T18:45:54.670Z,1.50
2019-05-12T18:48:21.942Z,1.60
2019-05-12T18:50:46.424Z,1.50
2019-05-12T18:53:26.377Z,1.50
2019-05-12T18:55:44.289Z,1.70
2019-05-12T18:58:14.609Z,1.47
2019-05-12T19:00:40.756Z,1.30
2019-05-12T19:03:09.922Z,1.50
2019-05-12T19:05:37.083Z,1.50
2019-05-12T19:08:04.243Z,1.40
2019-05-12T19:10:33.269Z,1.60
2019-05-12T19:13:01.884Z,1.53
2019-05-12T19:15:29.700Z,1.50
2019-05-12T19:17:56.877Z,1.87
2019-05-12T19:20:24.282Z,1.80
2019-05-12T19:22:57.368Z,1.80
2019-05-12T19:25:21.123Z,1.70
2019-05-12T19:27:55.177Z,1.40
2019-05-12T19:30:25.415Z,1.80
2019-05-12T19:32:51.816Z,1.80
2019-05-12T19:35:20.423Z,1.90
2019-05-12T19:37:47.604Z,2.00
2019-05-12T19:40:17.596Z,1.87
2019-05-12T19:42:44.015Z,1.90
2019-05-12T19:45:21.331Z,1.87
2019-05-12T19:47:41.227Z,1.80
2019-05-12T19:50:11.984Z,2.07
2019-05-12T19:52:37.691Z,2.00
2019-05-12T19:55:04.985Z,1.90
2019-05-12T19:57:33.563Z,1.83
2019-05-12T20:00:00.796Z,1.83
2019-05-12T20:02:27.843Z,1.90
2019-05-12T20:04:56.575Z,2.00
2019-05-12T20:07:23.860Z,1.90
2019-05-12T20:09:59.115Z,1.80
2019-05-12T20:12:19.991Z,1.90
2019-05-12T20:14:51.062Z,1.63
2019-05-12T20:17:16.003Z,1.80
2019-05-12T20:19:43.566Z,2.20
2019-05-12T20:24:38.059Z,1.70
2019-05-12T20:27:05.121Z,2.00
2019-05-12T20:29:35.107Z,1.80
2019-05-12T20:32:01.132Z,2.07
2019-05-12T20:41:54.690Z,1.90
2019-05-12T20:49:16.012Z,2.23
2019-05-12T20:54:16.410Z,2.10
2019-05-12T20:56:40.754Z,2.10
2019-05-12T20:59:07.827Z,2.33
2019-05-12T21:01:34.988Z,2.03
2019-05-12T21:04:03.637Z,2.30
2019-05-12T21:06:32.992Z,2.33
2019-05-12T21:09:03.346Z,2.00
2019-05-12T21:11:30.851Z,2.10
2019-05-12T21:14:01.090Z,2.40
2019-05-12T21:16:34.644Z,2.13
2019-05-12T21:19:09.871Z,2.10
2019-05-12T21:21:33.309Z,2.10
2019-05-12T21:23:59.190Z,2.27
2019-05-12T21:26:28.543Z,2.40
2019-05-12T21:28:53.928Z,2.17
2019-05-12T21:31:29.001Z,2.37
2019-05-12T21:33:50.275Z,2.63
2019-05-12T21:36:24.334Z,2.50
2019-05-12T21:38:46.294Z,2.30
2019-05-12T21:41:15.638Z,2.50
2019-05-12T21:43:43.778Z,2.50
2019-05-12T21:46:13.225Z,2.50
2019-05-12T21:48:40.312Z,2.40
2019-05-12T21:51:09.812Z,2.40
2019-05-12T21:53:36.351Z,2.37
2019-05-12T21:56:04.534Z,2.50
2019-05-12T21:58:32.555Z,2.40
2019-05-12T22:01:05.172Z,2.30
2019-05-12T22:03:33.451Z,2.53
2019-05-12T22:06:06.554Z,2.30
2019-05-12T22:08:33.650Z,2.30
2019-05-12T22:11:00.695Z,2.50
2019-05-12T22:13:29.154Z,2.60
2019-05-12T22:15:57.352Z,2.70
2019-05-12T22:18:25.179Z,2.77
2019-05-12T22:21:01.009Z,2.50
2019-05-12T22:23:21.548Z,2.53
2019-05-12T22:25:49.119Z,2.33
2019-05-12T22:28:17.832Z,2.80
2019-05-12T22:30:45.016Z,2.70
2019-05-12T22:33:13.847Z,2.70
2019-05-12T22:35:41.217Z,2.60
2019-05-12T22:38:15.365Z,2.67
2019-05-12T22:40:37.223Z,2.63
2019-05-12T22:43:07.040Z,2.77
2019-05-12T22:45:44.427Z,2.50
2019-05-12T22:48:04.281Z,3.10
2019-05-12T22:50:33.033Z,3.00
2019-05-12T22:53:00.416Z,2.60
2019-05-12T22:55:32.408Z,2.60
2019-05-12T22:57:56.540Z,2.90
2019-05-12T23:00:24.457Z,2.70
2019-05-12T23:02:53.563Z,2.87
2019-05-12T23:05:20.844Z,3.20
2019-05-12T23:07:47.903Z,2.60
2019-05-12T23:10:15.165Z,3.33
2019-05-12T23:12:44.120Z,3.30
2019-05-12T23:15:13.473Z,3.10
2019-05-12T23:17:45.168Z,3.10
2019-05-12T23:20:10.093Z,3.07
2019-05-12T23:22:37.152Z,3.50
2019-05-12T23:25:05.921Z,3.33
2019-05-12T23:27:33.462Z,3.10
2019-05-12T23:30:01.527Z,3.27
2019-05-12T23:32:30.619Z,3.03
2019-05-12T23:34:58.693Z,3.40
2019-05-12T23:37:30.248Z,3.63
2019-05-12T23:39:55.284Z,3.20
2019-05-12T23:42:23.709Z,3.37
2019-05-12T23:44:50.883Z,3.20
2019-05-12T23:47:17.949Z,3.57
2019-05-12T23:49:45.008Z,3.20
2019-05-12T23:52:14.007Z,3.40
2019-05-12T23:54:41.030Z,3.50
2019-05-12T23:57:08.101Z,3.30
2019-05-12T23:59:35.147Z,3.70
